Time;durP1;ratioP1;P1;durP2;ratioP2;P2;SDS_P1;SDS_P2;PMS_P1;PMS_P2;Temp;Humidity;BMP_temperature;BMP_pressure;BME280_temperature;BME280_humidity;BME280_pressure;Samples;Min_cycle;Max_cycle;Signal;HPM_P1;HPM_P2
2021/10/18 00:01:14;;;;;;;0.45;0.30;;;;;;;;;;2069798;28;20022;-76
2021/10/18 00:02:32;;;;;;;1.45;0.30;;;;;;;;;;2068105;28;20034;-76
2021/10/18 00:03:51;;;;;;;2.05;0.40;;;;;;;;;;2068247;28;20099;-76
2021/10/18 00:05:11;;;;;;;0.38;0.30;;;;;;;;;;2068999;28;20026;-76
2021/10/18 00:06:32;;;;;;;0.73;0.30;;;;;;;;;;2069853;28;20113;-76
2021/10/18 00:07:51;;;;;;;0.40;0.20;;;;;;;;;;2070994;28;20030;-75
2021/10/18 00:09:09;;;;;;;0.32;0.20;;;;;;;;;;2075157;28;20069;-76
2021/10/18 00:10:28;;;;;;;1.15;0.30;;;;;;;;;;2071859;28;20049;-76
2021/10/18 00:11:47;;;;;;;0.45;0.20;;;;;;;;;;2068282;28;20482;-77
2021/10/18 00:13:06;;;;;;;0.20;0.20;;;;;;;;;;2077016;28;20069;-76
2021/10/18 00:14:25;;;;;;;0.30;0.28;;;;;;;;;;2069891;28;20046;-76
2021/10/18 00:15:43;;;;;;;1.27;0.52;;;;;;;;;;2075266;28;20033;-76
2021/10/18 00:17:02;;;;;;;0.65;0.28;;;;;;;;;;2072387;28;20486;-77
2021/10/18 00:18:21;;;;;;;0.73;0.20;;;;;;;;;;2072443;28;20042;-76
2021/10/18 00:19:40;;;;;;;0.57;0.40;;;;;;;;;;2070745;28;20045;-76
2021/10/18 00:20:59;;;;;;;2.45;0.63;;;;;;;;;;2079118;28;20034;-77
2021/10/18 00:22:18;;;;;;;3.65;0.35;;;;;;;;;;2077565;28;20030;-76
2021/10/18 00:23:37;;;;;;;0.90;0.40;;;;;;;;;;2072346;28;20838;-76
2021/10/18 00:24:55;;;;;;;0.22;0.20;;;;;;;;;;2071099;28;20042;-76
2021/10/18 00:26:14;;;;;;;0.75;0.30;;;;;;;;;;2068153;28;20486;-77
2021/10/18 00:27:33;;;;;;;1.38;0.40;;;;;;;;;;2067381;28;20498;-76
2021/10/18 00:28:52;;;;;;;0.30;0.20;;;;;;;;;;2069264;28;20042;-75
2021/10/18 00:30:11;;;;;;;1.80;0.30;;;;;;;;;;2071475;28;20030;-75
2021/10/18 00:31:30;;;;;;;1.13;0.20;;;;;;;;;;2068086;28;20502;-75
2021/10/18 00:32:49;;;;;;;0.75;0.30;;;;;;;;;;2068112;28;20046;-75
2021/10/18 00:34:08;;;;;;;0.50;0.30;;;;;;;;;;2073348;28;20041;-75
2021/10/18 00:35:27;;;;;;;0.40;0.22;;;;;;;;;;2074806;28;20906;-75
2021/10/18 00:36:46;;;;;;;0.30;0.10;;;;;;;;;;2071796;28;20026;-75
2021/10/18 00:38:05;;;;;;;0.65;0.22;;;;;;;;;;2072768;28;20030;-76
2021/10/18 00:39:24;;;;;;;0.77;0.63;;;;;;;;;;2070504;28;20537;-76
2021/10/18 00:40:43;;;;;;;0.85;0.40;;;;;;;;;;2075387;28;20030;-76
2021/10/18 00:42:02;;;;;;;0.73;0.30;;;;;;;;;;2073689;28;20030;-75
2021/10/18 00:43:22;;;;;;;1.38;0.47;;;;;;;;;;2072028;28;20066;-76
2021/10/18 00:44:42;;;;;;;1.20;0.32;;;;;;;;;;2067586;28;20050;-75
2021/10/18 00:46:01;;;;;;;5.32;0.30;;;;;;;;;;2075379;28;20041;-75
2021/10/18 00:47:21;;;;;;;3.90;0.60;;;;;;;;;;2074667;28;20486;-75
2021/10/18 00:48:40;;;;;;;2.15;0.43;;;;;;;;;;2071065;28;20390;-75
2021/10/18 00:49:59;;;;;;;0.38;0.20;;;;;;;;;;2070893;28;20041;-76
2021/10/18 00:51:20;;;;;;;2.50;0.50;;;;;;;;;;2073715;28;20026;-76
2021/10/18 00:52:39;;;;;;;0.63;0.38;;;;;;;;;;2080523;28;20038;-76
2021/10/18 00:53:59;;;;;;;1.38;0.30;;;;;;;;;;2075218;28;20030;-76
2021/10/18 00:55:18;;;;;;;0.22;0.20;;;;;;;;;;2071575;28;20459;-76
2021/10/18 00:56:37;;;;;;;1.95;0.40;;;;;;;;;;2072110;28;20131;-76
2021/10/18 00:57:56;;;;;;;2.15;0.30;;;;;;;;;;2071118;28;20042;-75
2021/10/18 00:59:15;;;;;;;0.73;0.30;;;;;;;;;;2072972;28;20034;-75
2021/10/18 01:00:34;;;;;;;3.03;0.75;;;;;;;;;;2071837;28;20034;-76
2021/10/18 01:01:53;;;;;;;1.25;0.30;;;;;;;;;;2071304;28;20104;-75
2021/10/18 01:03:12;;;;;;;1.52;0.38;;;;;;;;;;2072286;28;20026;-75
2021/10/18 01:04:31;;;;;;;0.98;0.25;;;;;;;;;;2070909;28;20046;-75
2021/10/18 01:05:51;;;;;;;1.55;0.40;;;;;;;;;;2073207;28;20026;-76
2021/10/18 01:07:10;;;;;;;0.70;0.30;;;;;;;;;;2072125;28;20038;-75
2021/10/18 01:08:28;;;;;;;0.77;0.30;;;;;;;;;;2073252;28;20041;-75
2021/10/18 01:09:48;;;;;;;1.00;0.45;;;;;;;;;;2075510;28;20379;-75
2021/10/18 01:11:07;;;;;;;0.85;0.38;;;;;;;;;;2073187;28;20030;-75
2021/10/18 01:12:25;;;;;;;3.50;0.63;;;;;;;;;;2072821;28;20037;-75
2021/10/18 01:13:45;;;;;;;2.47;0.30;;;;;;;;;;2073764;28;20029;-75
2021/10/18 01:15:04;;;;;;;0.80;0.40;;;;;;;;;;2071990;28;20494;-75
2021/10/18 01:16:23;;;;;;;2.05;0.50;;;;;;;;;;2072482;28;20479;-76
2021/10/18 01:17:43;;;;;;;2.15;0.40;;;;;;;;;;2072863;28;20029;-76
2021/10/18 01:19:18;;;;;;;0.90;0.40;;;;;;;;;;2076092;28;20614;-75
2021/10/18 01:20:38;;;;;;;1.02;0.47;;;;;;;;;;2074024;28;20386;-75
2021/10/18 01:21:58;;;;;;;1.50;0.30;;;;;;;;;;2072222;28;20034;-74
2021/10/18 01:23:17;;;;;;;1.02;0.30;;;;;;;;;;2073854;28;20021;-75
2021/10/18 01:24:36;;;;;;;3.05;0.38;;;;;;;;;;2072711;28;20507;-75
2021/10/18 01:25:55;;;;;;;0.55;0.20;;;;;;;;;;2072041;28;20034;-75
2021/10/18 01:27:14;;;;;;;0.98;0.30;;;;;;;;;;2075369;28;20034;-76
2021/10/18 01:28:33;;;;;;;1.02;0.40;;;;;;;;;;2071006;28;20057;-76
2021/10/18 01:29:52;;;;;;;3.92;0.40;;;;;;;;;;2069492;28;20033;-76
2021/10/18 01:31:11;;;;;;;0.45;0.30;;;;;;;;;;2073096;28;20030;-76
2021/10/18 01:32:30;;;;;;;0.28;0.28;;;;;;;;;;2072273;28;20034;-76
2021/10/18 01:33:49;;;;;;;0.55;0.38;;;;;;;;;;2072722;28;20026;-76
2021/10/18 01:35:08;;;;;;;0.60;0.30;;;;;;;;;;2071366;28;20073;-76
2021/10/18 01:36:26;;;;;;;0.32;0.20;;;;;;;;;;2072696;28;20038;-76
2021/10/18 01:37:45;;;;;;;1.63;0.43;;;;;;;;;;2072180;28;20513;-76
2021/10/18 01:39:04;;;;;;;0.22;0.22;;;;;;;;;;2072847;28;20034;-76
2021/10/18 01:40:24;;;;;;;0.38;0.20;;;;;;;;;;2071934;28;20425;-76
2021/10/18 01:41:43;;;;;;;0.43;0.20;;;;;;;;;;2079553;28;20377;-75
2021/10/18 01:43:02;;;;;;;0.82;0.30;;;;;;;;;;2079559;28;20117;-75
2021/10/18 01:44:21;;;;;;;1.08;0.30;;;;;;;;;;2073572;28;20112;-76
2021/10/18 01:45:40;;;;;;;0.30;0.20;;;;;;;;;;2070832;28;20031;-75
2021/10/18 01:46:59;;;;;;;0.20;0.20;;;;;;;;;;2073704;28;20022;-76
2021/10/18 01:48:17;;;;;;;0.38;0.20;;;;;;;;;;2078889;28;20034;-75
2021/10/18 01:49:36;;;;;;;1.65;0.30;;;;;;;;;;2074545;28;20478;-75
2021/10/18 01:50:55;;;;;;;0.43;0.43;;;;;;;;;;2071755;28;20042;-76
2021/10/18 01:52:14;;;;;;;0.98;0.40;;;;;;;;;;2072802;28;20049;-75
2021/10/18 01:53:33;;;;;;;0.45;0.28;;;;;;;;;;2072532;28;20432;-75
2021/10/18 01:54:52;;;;;;;1.35;0.30;;;;;;;;;;2070082;28;20067;-75
2021/10/18 01:56:11;;;;;;;0.73;0.20;;;;;;;;;;2071627;28;20481;-75
2021/10/18 01:57:30;;;;;;;0.38;0.22;;;;;;;;;;2071378;28;20038;-75
2021/10/18 01:58:49;;;;;;;0.60;0.30;;;;;;;;;;2072436;28;20038;-75
2021/10/18 02:00:09;;;;;;;1.40;0.20;;;;;;;;;;2072090;28;20101;-76
2021/10/18 02:01:28;;;;;;;0.65;0.20;;;;;;;;;;2078264;28;20382;-76
2021/10/18 02:02:46;;;;;;;1.00;0.30;;;;;;;;;;2075757;28;20486;-75
2021/10/18 02:04:05;;;;;;;0.50;0.30;;;;;;;;;;2073793;28;20030;-75
2021/10/18 02:05:24;;;;;;;2.05;0.17;;;;;;;;;;2069212;28;20109;-76
2021/10/18 02:06:43;;;;;;;0.52;0.20;;;;;;;;;;2074573;28;20461;-75
2021/10/18 02:08:02;;;;;;;0.95;0.35;;;;;;;;;;2074355;28;20030;-75
2021/10/18 02:09:21;;;;;;;0.30;0.22;;;;;;;;;;2078690;28;20030;-76
2021/10/18 02:10:40;;;;;;;1.25;0.40;;;;;;;;;;2074514;28;20034;-75
2021/10/18 02:11:58;;;;;;;1.38;0.30;;;;;;;;;;2072355;28;20037;-76
2021/10/18 02:13:17;;;;;;;0.30;0.30;;;;;;;;;;2073635;28;20486;-75
2021/10/18 02:14:36;;;;;;;1.65;0.45;;;;;;;;;;2072124;28;20490;-76
2021/10/18 02:15:55;;;;;;;0.55;0.20;;;;;;;;;;2070522;28;20034;-75
2021/10/18 02:17:14;;;;;;;0.20;0.10;;;;;;;;;;2072119;28;20026;-74
2021/10/18 02:18:33;;;;;;;1.67;0.47;;;;;;;;;;2072290;28;20022;-74
2021/10/18 02:19:52;;;;;;;0.35;0.28;;;;;;;;;;2072499;28;20022;-74
2021/10/18 02:21:11;;;;;;;0.45;0.40;;;;;;;;;;2070151;28;20022;-74
2021/10/18 02:22:30;;;;;;;0.52;0.28;;;;;;;;;;2071506;28;20076;-74
2021/10/18 02:23:49;;;;;;;0.73;0.40;;;;;;;;;;2071724;28;20022;-74
2021/10/18 02:25:09;;;;;;;1.58;0.32;;;;;;;;;;2066297;28;20470;-74
2021/10/18 02:26:28;;;;;;;0.50;0.30;;;;;;;;;;2067815;28;20490;-75
2021/10/18 02:27:47;;;;;;;1.20;0.22;;;;;;;;;;2070100;28;20037;-75
2021/10/18 02:29:06;;;;;;;0.65;0.17;;;;;;;;;;2069207;28;20029;-74
2021/10/18 02:30:25;;;;;;;2.28;0.38;;;;;;;;;;2073852;28;20124;-75
2021/10/18 02:31:44;;;;;;;3.95;0.30;;;;;;;;;;2070589;28;20057;-75
2021/10/18 02:33:03;;;;;;;0.52;0.20;;;;;;;;;;2071984;28;20034;-75
2021/10/18 02:34:22;;;;;;;0.95;0.30;;;;;;;;;;2072149;28;20030;-75
2021/10/18 02:35:41;;;;;;;2.85;0.32;;;;;;;;;;2068590;28;20093;-75
2021/10/18 02:36:59;;;;;;;0.20;0.20;;;;;;;;;;2071871;28;20029;-75
2021/10/18 02:38:18;;;;;;;0.35;0.30;;;;;;;;;;2071823;28;20120;-75
2021/10/18 02:39:37;;;;;;;0.20;0.20;;;;;;;;;;2071550;28;20026;-74
2021/10/18 02:40:56;;;;;;;0.40;0.28;;;;;;;;;;2069707;28;20027;-74
2021/10/18 02:42:15;;;;;;;0.82;0.35;;;;;;;;;;2073053;28;20026;-75
2021/10/18 02:43:34;;;;;;;0.57;0.30;;;;;;;;;;2070175;28;20061;-75
2021/10/18 02:44:54;;;;;;;1.60;0.38;;;;;;;;;;2071987;28;20030;-75
2021/10/18 02:46:12;;;;;;;0.30;0.20;;;;;;;;;;2072434;28;20113;-74
2021/10/18 02:47:31;;;;;;;1.15;0.40;;;;;;;;;;2071314;28;20101;-75
2021/10/18 02:48:50;;;;;;;0.70;0.22;;;;;;;;;;2071190;28;20029;-74
2021/10/18 02:50:09;;;;;;;0.20;0.20;;;;;;;;;;2069556;28;20049;-75
2021/10/18 02:51:28;;;;;;;0.65;0.20;;;;;;;;;;2072123;28;20030;-74
2021/10/18 02:52:47;;;;;;;0.20;0.13;;;;;;;;;;2071407;28;20069;-75
2021/10/18 02:54:06;;;;;;;1.08;0.35;;;;;;;;;;2068752;28;20050;-75
2021/10/18 02:55:25;;;;;;;2.78;0.68;;;;;;;;;;2070380;28;20073;-75
2021/10/18 02:56:44;;;;;;;1.27;0.25;;;;;;;;;;2071019;28;20038;-75
2021/10/18 02:58:03;;;;;;;1.92;0.40;;;;;;;;;;2072114;28;20037;-75
2021/10/18 02:59:21;;;;;;;1.17;0.50;;;;;;;;;;2071526;28;20398;-75
2021/10/18 03:00:40;;;;;;;0.20;0.20;;;;;;;;;;2071889;28;20022;-75
2021/10/18 03:01:59;;;;;;;1.95;0.40;;;;;;;;;;2075483;28;20021;-75
2021/10/18 03:03:18;;;;;;;0.50;0.30;;;;;;;;;;2071316;28;20046;-75
2021/10/18 03:04:37;;;;;;;0.30;0.30;;;;;;;;;;2072515;28;20018;-75
2021/10/18 03:05:56;;;;;;;1.15;0.43;;;;;;;;;;2076881;28;20460;-75
2021/10/18 03:07:15;;;;;;;1.85;0.55;;;;;;;;;;2075018;28;20390;-76
2021/10/18 03:08:34;;;;;;;2.33;0.40;;;;;;;;;;2071836;28;20018;-76
2021/10/18 03:09:53;;;;;;;0.90;0.45;;;;;;;;;;2075159;28;20517;-76
2021/10/18 03:11:13;;;;;;;1.17;0.35;;;;;;;;;;2068554;28;20607;-75
2021/10/18 03:12:32;;;;;;;0.75;0.30;;;;;;;;;;2074383;28;20042;-75
2021/10/18 03:13:51;;;;;;;0.20;0.20;;;;;;;;;;2074465;28;20026;-75
2021/10/18 03:15:11;;;;;;;0.25;0.20;;;;;;;;;;2070109;28;20490;-75
2021/10/18 03:16:30;;;;;;;0.40;0.30;;;;;;;;;;2071094;28;20030;-75
2021/10/18 03:17:51;;;;;;;1.23;0.20;;;;;;;;;;2071822;28;20026;-75
2021/10/18 03:19:09;;;;;;;0.80;0.40;;;;;;;;;;2079936;28;20503;-75
2021/10/18 03:20:28;;;;;;;0.63;0.20;;;;;;;;;;2072542;28;20457;-75
2021/10/18 03:21:47;;;;;;;0.75;0.20;;;;;;;;;;2076096;28;20037;-75
2021/10/18 03:23:05;;;;;;;0.77;0.20;;;;;;;;;;2070682;28;20026;-75
2021/10/18 03:24:24;;;;;;;1.30;0.30;;;;;;;;;;2071701;28;20034;-76
2021/10/18 03:25:43;;;;;;;0.38;0.20;;;;;;;;;;2071140;28;20030;-76
2021/10/18 03:27:02;;;;;;;1.10;0.43;;;;;;;;;;2070405;28;20030;-76
2021/10/18 03:28:21;;;;;;;1.73;0.20;;;;;;;;;;2069495;28;20034;-76
2021/10/18 03:29:40;;;;;;;0.52;0.30;;;;;;;;;;2071089;28;20018;-76
2021/10/18 03:30:59;;;;;;;1.50;0.30;;;;;;;;;;2071714;28;20021;-76
2021/10/18 03:32:18;;;;;;;1.00;0.30;;;;;;;;;;2071469;28;20026;-76
2021/10/18 03:33:38;;;;;;;0.80;0.20;;;;;;;;;;2071165;28;20026;-76
2021/10/18 03:34:57;;;;;;;0.88;0.40;;;;;;;;;;2070354;28;20058;-76
2021/10/18 03:36:16;;;;;;;0.35;0.30;;;;;;;;;;2068849;28;20030;-76
2021/10/18 03:37:35;;;;;;;1.27;0.30;;;;;;;;;;2070239;28;20104;-76
2021/10/18 03:38:54;;;;;;;0.47;0.40;;;;;;;;;;2071217;28;20030;-76
2021/10/18 03:40:13;;;;;;;0.30;0.20;;;;;;;;;;2071796;28;20030;-76
2021/10/18 03:41:32;;;;;;;0.52;0.28;;;;;;;;;;2070897;28;20034;-75
2021/10/18 03:42:50;;;;;;;0.25;0.20;;;;;;;;;;2069761;28;20534;-75
2021/10/18 03:44:09;;;;;;;0.45;0.40;;;;;;;;;;2079815;28;20123;-75
2021/10/18 03:45:28;;;;;;;2.17;0.30;;;;;;;;;;2074279;28;20429;-75
2021/10/18 03:46:47;;;;;;;0.38;0.25;;;;;;;;;;2073260;28;20041;-76
2021/10/18 03:48:06;;;;;;;0.38;0.38;;;;;;;;;;2067982;28;20022;-75
2021/10/18 03:49:25;;;;;;;0.30;0.28;;;;;;;;;;2069948;28;20038;-76
2021/10/18 03:50:44;;;;;;;1.98;0.30;;;;;;;;;;2079738;28;20080;-76
2021/10/18 03:52:03;;;;;;;0.60;0.40;;;;;;;;;;2077169;28;20029;-76
2021/10/18 03:53:23;;;;;;;0.55;0.30;;;;;;;;;;2074547;28;20065;-76
2021/10/18 03:54:41;;;;;;;0.98;0.40;;;;;;;;;;2071158;28;20034;-76
2021/10/18 03:56:00;;;;;;;1.00;0.30;;;;;;;;;;2072071;28;20034;-76
2021/10/18 03:57:19;;;;;;;2.30;0.25;;;;;;;;;;2070830;28;20553;-75
2021/10/18 03:58:38;;;;;;;0.85;0.20;;;;;;;;;;2070314;28;20483;-75
2021/10/18 03:59:57;;;;;;;2.60;0.40;;;;;;;;;;2071532;28;20034;-75
2021/10/18 04:01:16;;;;;;;1.15;0.47;;;;;;;;;;2070707;28;20030;-76
2021/10/18 04:02:36;;;;;;;3.08;0.70;;;;;;;;;;2071949;28;20426;-75
2021/10/18 04:03:54;;;;;;;2.15;0.28;;;;;;;;;;2080397;28;20029;-76
2021/10/18 04:05:13;;;;;;;0.40;0.30;;;;;;;;;;2070444;28;20041;-75
2021/10/18 04:06:32;;;;;;;1.75;0.30;;;;;;;;;;2071019;28;20389;-75
2021/10/18 04:07:51;;;;;;;0.65;0.35;;;;;;;;;;2070257;28;20018;-76
2021/10/18 04:09:10;;;;;;;0.90;0.55;;;;;;;;;;2068890;28;20038;-76
2021/10/18 04:10:28;;;;;;;1.88;0.30;;;;;;;;;;2075875;28;20120;-76
2021/10/18 04:11:47;;;;;;;0.90;0.30;;;;;;;;;;2074882;28;20030;-75
2021/10/18 04:13:06;;;;;;;0.82;0.28;;;;;;;;;;2070472;28;20030;-76
2021/10/18 04:14:25;;;;;;;0.85;0.35;;;;;;;;;;2070193;28;20045;-76
2021/10/18 04:15:44;;;;;;;0.52;0.25;;;;;;;;;;2070767;28;20034;-76
2021/10/18 04:17:03;;;;;;;0.35;0.25;;;;;;;;;;2073113;28;20417;-76
2021/10/18 04:18:22;;;;;;;0.30;0.20;;;;;;;;;;2073340;28;20042;-76
2021/10/18 04:19:41;;;;;;;3.50;0.20;;;;;;;;;;2073174;28;20467;-76
2021/10/18 04:21:00;;;;;;;1.08;0.50;;;;;;;;;;2067575;28;20026;-76
2021/10/18 04:22:19;;;;;;;1.33;0.40;;;;;;;;;;2067630;28;20038;-76
2021/10/18 04:23:38;;;;;;;1.20;0.50;;;;;;;;;;2069692;28;20030;-76
2021/10/18 04:24:56;;;;;;;0.50;0.38;;;;;;;;;;2080690;28;20069;-77
2021/10/18 04:26:15;;;;;;;1.63;0.40;;;;;;;;;;2078598;28;20038;-76
2021/10/18 04:27:34;;;;;;;0.52;0.30;;;;;;;;;;2072118;28;20034;-74
2021/10/18 04:28:54;;;;;;;1.85;0.30;;;;;;;;;;2076706;28;20456;-75
2021/10/18 04:30:13;;;;;;;0.43;0.30;;;;;;;;;;2073409;28;20038;-77
2021/10/18 04:31:33;;;;;;;1.10;0.38;;;;;;;;;;2076279;28;20562;-75
2021/10/18 04:32:51;;;;;;;0.30;0.30;;;;;;;;;;2072979;28;20516;-76
2021/10/18 04:34:10;;;;;;;1.65;0.40;;;;;;;;;;2071436;28;20038;-76
2021/10/18 04:35:29;;;;;;;0.50;0.40;;;;;;;;;;2073092;28;20030;-74
2021/10/18 04:36:48;;;;;;;0.50;0.30;;;;;;;;;;2068122;28;20034;-75
2021/10/18 04:38:07;;;;;;;0.68;0.20;;;;;;;;;;2077083;28;20038;-77
2021/10/18 04:39:26;;;;;;;1.95;0.40;;;;;;;;;;2080191;28;20995;-78
2021/10/18 04:40:45;;;;;;;2.20;0.30;;;;;;;;;;2076731;28;20426;-76
2021/10/18 04:42:04;;;;;;;0.60;0.30;;;;;;;;;;2073049;28;20478;-77
2021/10/18 04:43:23;;;;;;;0.60;0.20;;;;;;;;;;2074257;28;20034;-77
2021/10/18 04:44:42;;;;;;;0.73;0.30;;;;;;;;;;2070667;28;20034;-77
2021/10/18 04:46:00;;;;;;;1.80;0.60;;;;;;;;;;2065900;28;20061;-77
2021/10/18 04:47:19;;;;;;;1.85;0.30;;;;;;;;;;2074119;28;20076;-76
2021/10/18 04:48:38;;;;;;;0.63;0.30;;;;;;;;;;2071071;28;20046;-78
2021/10/18 04:49:57;;;;;;;0.77;0.25;;;;;;;;;;2071775;28;20038;-76
2021/10/18 04:51:16;;;;;;;1.13;0.28;;;;;;;;;;2072598;28;20034;-77
2021/10/18 04:52:35;;;;;;;0.80;0.20;;;;;;;;;;2071550;28;20033;-76
2021/10/18 04:53:54;;;;;;;1.00;0.28;;;;;;;;;;2072355;28;20022;-80
2021/10/18 04:55:13;;;;;;;2.08;0.28;;;;;;;;;;2073494;28;20026;-76
2021/10/18 04:56:32;;;;;;;1.05;0.25;;;;;;;;;;2071662;28;20030;-77
2021/10/18 04:57:54;;;;;;;0.63;0.40;;;;;;;;;;2070631;28;20022;-75
2021/10/18 04:59:13;;;;;;;3.00;0.40;;;;;;;;;;2067412;28;20442;-78
2021/10/18 05:00:36;;;;;;;2.95;0.30;;;;;;;;;;2068922;28;20026;-75
2021/10/18 05:01:55;;;;;;;0.30;0.25;;;;;;;;;;2078200;28;20022;-76
2021/10/18 05:03:14;;;;;;;2.10;0.45;;;;;;;;;;2072239;28;20390;-77
2021/10/18 05:04:33;;;;;;;1.45;0.30;;;;;;;;;;2075069;28;20026;-79
2021/10/18 05:05:52;;;;;;;0.75;0.43;;;;;;;;;;2073668;28;20038;-77
2021/10/18 05:07:10;;;;;;;0.75;0.30;;;;;;;;;;2071976;28;20014;-78
2021/10/18 05:08:29;;;;;;;1.17;0.40;;;;;;;;;;2073253;28;20109;-77
2021/10/18 05:09:48;;;;;;;0.50;0.30;;;;;;;;;;2066510;28;20041;-77
2021/10/18 05:11:07;;;;;;;0.40;0.40;;;;;;;;;;2077481;28;20026;-78
2021/10/18 05:12:25;;;;;;;0.20;0.20;;;;;;;;;;2071530;28;20034;-78
2021/10/18 05:13:44;;;;;;;1.08;0.40;;;;;;;;;;2067355;28;20033;-78
2021/10/18 05:15:03;;;;;;;0.82;0.60;;;;;;;;;;2067767;28;20110;-80
2021/10/18 05:16:23;;;;;;;2.53;0.57;;;;;;;;;;2078151;28;20037;-80
2021/10/18 05:17:42;;;;;;;2.17;0.30;;;;;;;;;;2071965;28;20030;-79
2021/10/18 05:19:01;;;;;;;0.63;0.30;;;;;;;;;;2069561;28;20057;-80
2021/10/18 05:20:20;;;;;;;0.60;0.28;;;;;;;;;;2072629;28;20041;-79
2021/10/18 05:21:39;;;;;;;4.05;0.60;;;;;;;;;;2069757;28;20041;-79
2021/10/18 05:22:58;;;;;;;2.55;0.38;;;;;;;;;;2077313;28;20486;-77
2021/10/18 05:24:17;;;;;;;0.45;0.30;;;;;;;;;;2072220;28;20030;-79
2021/10/18 05:25:36;;;;;;;1.27;0.40;;;;;;;;;;2076511;28;20069;-78
2021/10/18 05:26:54;;;;;;;1.42;0.30;;;;;;;;;;2083467;28;20021;-78
2021/10/18 05:28:13;;;;;;;1.13;0.50;;;;;;;;;;2082166;28;20033;-77
2021/10/18 05:29:32;;;;;;;2.95;0.40;;;;;;;;;;2077070;28;20160;-77
2021/10/18 05:30:51;;;;;;;0.50;0.20;;;;;;;;;;2075673;28;20069;-78
2021/10/18 05:32:10;;;;;;;0.15;0.15;;;;;;;;;;2079508;28;20037;-79
2021/10/18 05:33:29;;;;;;;0.68;0.60;;;;;;;;;;2075960;28;20121;-77
2021/10/18 05:34:47;;;;;;;0.80;0.30;;;;;;;;;;2073086;28;20494;-76
2021/10/18 05:36:06;;;;;;;0.32;0.32;;;;;;;;;;2069526;28;20510;-80
2021/10/18 05:37:25;;;;;;;1.35;0.38;;;;;;;;;;2075054;28;20120;-79
2021/10/18 05:38:44;;;;;;;1.73;0.45;;;;;;;;;;2078312;28;20038;-79
2021/10/18 05:40:02;;;;;;;1.00;0.35;;;;;;;;;;2079017;28;20558;-80
2021/10/18 05:41:21;;;;;;;1.17;0.30;;;;;;;;;;2070261;28;20037;-80
2021/10/18 05:42:40;;;;;;;1.17;0.22;;;;;;;;;;2073011;28;20104;-79
2021/10/18 05:43:59;;;;;;;1.50;0.45;;;;;;;;;;2075868;28;20367;-76
2021/10/18 05:45:18;;;;;;;1.65;0.40;;;;;;;;;;2073515;28;20034;-82
2021/10/18 05:46:37;;;;;;;1.00;0.38;;;;;;;;;;2070001;28;20490;-81
2021/10/18 05:47:56;;;;;;;0.20;0.20;;;;;;;;;;2068473;28;20104;-75
2021/10/18 05:49:15;;;;;;;0.85;0.55;;;;;;;;;;2071194;28;20030;-75
2021/10/18 05:50:35;;;;;;;1.17;0.40;;;;;;;;;;2071195;28;20049;-76
2021/10/18 05:51:54;;;;;;;0.60;0.35;;;;;;;;;;2066822;28;20483;-75
2021/10/18 05:53:13;;;;;;;4.35;0.47;;;;;;;;;;2066872;28;20042;-75
2021/10/18 05:54:34;;;;;;;0.60;0.38;;;;;;;;;;2070036;28;20034;-79
2021/10/18 05:55:54;;;;;;;1.05;0.40;;;;;;;;;;2075070;28;20030;-79
2021/10/18 05:57:12;;;;;;;2.30;0.40;;;;;;;;;;2069862;28;20562;-80
2021/10/18 05:58:31;;;;;;;0.63;0.30;;;;;;;;;;2076471;28;20519;-79
2021/10/18 05:59:50;;;;;;;2.40;0.35;;;;;;;;;;2070536;28;20026;-80
2021/10/18 06:01:09;;;;;;;1.17;0.32;;;;;;;;;;2076388;28;20029;-78
2021/10/18 06:02:28;;;;;;;0.85;0.60;;;;;;;;;;2071161;28;20033;-77
2021/10/18 06:03:46;;;;;;;0.50;0.20;;;;;;;;;;2076141;28;20037;-78
2021/10/18 06:05:05;;;;;;;2.03;0.35;;;;;;;;;;2071694;28;20097;-79
2021/10/18 06:06:25;;;;;;;1.33;0.60;;;;;;;;;;2071183;28;20041;-77
2021/10/18 06:07:44;;;;;;;1.70;0.40;;;;;;;;;;2071698;28;20082;-79
2021/10/18 06:09:04;;;;;;;1.13;0.40;;;;;;;;;;2066716;28;20069;-78
2021/10/18 06:10:23;;;;;;;1.10;0.30;;;;;;;;;;2076849;28;20029;-81
2021/10/18 06:11:42;;;;;;;0.40;0.20;;;;;;;;;;2072200;28;20037;-81
2021/10/18 06:13:01;;;;;;;1.52;0.47;;;;;;;;;;2067274;28;20481;-83
2021/10/18 06:14:20;;;;;;;0.98;0.30;;;;;;;;;;2070012;28;20030;-78
2021/10/18 06:15:39;;;;;;;2.80;0.40;;;;;;;;;;2077116;28;20029;-80
2021/10/18 06:16:58;;;;;;;0.38;0.30;;;;;;;;;;2068785;28;20042;-80
2021/10/18 06:18:17;;;;;;;1.25;0.40;;;;;;;;;;2067343;28;20037;-78
2021/10/18 06:19:36;;;;;;;1.42;0.50;;;;;;;;;;2073738;28;20176;-79
2021/10/18 06:20:55;;;;;;;1.15;0.40;;;;;;;;;;2071287;28;20034;-79
2021/10/18 06:22:14;;;;;;;1.55;0.50;;;;;;;;;;2076603;28;20021;-78
2021/10/18 06:23:33;;;;;;;1.15;0.60;;;;;;;;;;2070839;28;20039;-77
2021/10/18 06:24:52;;;;;;;1.75;0.63;;;;;;;;;;2070176;28;20414;-77
2021/10/18 06:26:11;;;;;;;0.63;0.32;;;;;;;;;;2076511;28;20108;-78
2021/10/18 06:27:30;;;;;;;2.15;0.40;;;;;;;;;;2068696;28;20525;-79
2021/10/18 06:28:49;;;;;;;0.30;0.30;;;;;;;;;;2075685;28;20064;-78
2021/10/18 06:30:08;;;;;;;1.98;0.50;;;;;;;;;;2070495;28;20030;-78
2021/10/18 06:31:27;;;;;;;1.40;0.55;;;;;;;;;;2071546;28;20034;-78
2021/10/18 06:32:46;;;;;;;2.90;0.85;;;;;;;;;;2071238;28;20109;-79
2021/10/18 06:34:05;;;;;;;1.35;0.30;;;;;;;;;;2072611;28;20057;-78
2021/10/18 06:35:24;;;;;;;1.98;0.50;;;;;;;;;;2074425;28;20037;-78
2021/10/18 06:36:42;;;;;;;2.08;0.43;;;;;;;;;;2070109;28;20116;-78
2021/10/18 06:38:08;;;;;;;1.30;0.30;;;;;;;;;;2076056;28;20029;-77
2021/10/18 06:39:27;;;;;;;0.73;0.35;;;;;;;;;;2071151;28;20034;-79
2021/10/18 06:40:47;;;;;;;2.17;0.40;;;;;;;;;;2069393;28;20504;-78
2021/10/18 06:42:06;;;;;;;4.07;0.30;;;;;;;;;;2064811;28;20117;-78
2021/10/18 06:43:26;;;;;;;1.42;0.30;;;;;;;;;;2075592;28;20033;-79
2021/10/18 06:44:45;;;;;;;0.30;0.30;;;;;;;;;;2071989;28;20038;-77
2021/10/18 06:46:04;;;;;;;1.42;1.00;;;;;;;;;;2075518;28;20026;-78
2021/10/18 06:47:23;;;;;;;1.17;0.60;;;;;;;;;;2072065;28;20038;-80
2021/10/18 06:48:43;;;;;;;0.57;0.40;;;;;;;;;;2075493;28;20114;-76
2021/10/18 06:50:03;;;;;;;1.55;0.50;;;;;;;;;;2072442;28;20542;-79
2021/10/18 06:51:21;;;;;;;1.48;0.60;;;;;;;;;;2076012;28;20021;-82
2021/10/18 06:52:42;;;;;;;1.20;0.40;;;;;;;;;;2070099;28;20030;-78
2021/10/18 06:54:02;;;;;;;0.73;0.52;;;;;;;;;;2072143;28;20026;-81
2021/10/18 06:55:23;;;;;;;1.02;0.40;;;;;;;;;;2080740;28;20021;-83
2021/10/18 06:56:44;;;;;;;1.60;0.40;;;;;;;;;;2071767;28;20026;-85
2021/10/18 06:58:03;;;;;;;1.38;0.70;;;;;;;;;;2069382;28;20018;-84
2021/10/18 06:59:22;;;;;;;1.48;0.60;;;;;;;;;;2072079;28;20029;-85
2021/10/18 07:00:43;;;;;;;2.45;0.40;;;;;;;;;;2068251;28;20029;-84
2021/10/18 07:02:02;;;;;;;0.25;0.22;;;;;;;;;;2076935;28;20053;-85
2021/10/18 07:03:20;;;;;;;3.33;0.52;;;;;;;;;;2075934;28;20022;-85
2021/10/18 07:04:39;;;;;;;1.70;0.25;;;;;;;;;;2071687;28;20018;-85
2021/10/18 07:06:01;;;;;;;0.63;0.40;;;;;;;;;;2072388;28;20023;-85
2021/10/18 07:07:21;;;;;;;2.78;0.40;;;;;;;;;;2070209;28;20043;-84
2021/10/18 07:08:39;;;;;;;1.08;0.30;;;;;;;;;;2072554;28;20026;-85
2021/10/18 07:10:01;;;;;;;0.90;0.40;;;;;;;;;;2076260;28;20029;-83
2021/10/18 07:11:20;;;;;;;2.55;0.45;;;;;;;;;;2071446;28;20460;-85
2021/10/18 07:12:39;;;;;;;1.65;0.30;;;;;;;;;;2069182;28;20445;-85
2021/10/18 07:13:58;;;;;;;1.45;0.40;;;;;;;;;;2069453;28;20433;-83
2021/10/18 07:15:17;;;;;;;1.67;0.40;;;;;;;;;;2075266;28;20026;-83
2021/10/18 07:16:35;;;;;;;1.98;0.30;;;;;;;;;;2071745;28;20487;-85
2021/10/18 07:17:54;;;;;;;1.60;0.40;;;;;;;;;;2069032;28;20053;-84
2021/10/18 07:19:13;;;;;;;1.00;0.30;;;;;;;;;;2069976;28;20030;-85
2021/10/18 07:20:32;;;;;;;1.80;0.50;;;;;;;;;;2069619;28;20026;-85
2021/10/18 07:21:51;;;;;;;2.20;0.30;;;;;;;;;;2076968;28;20474;-84
2021/10/18 07:23:11;;;;;;;2.53;0.52;;;;;;;;;;2071311;28;20089;-86
2021/10/18 07:24:30;;;;;;;0.88;0.35;;;;;;;;;;2076015;28;20049;-85
2021/10/18 07:25:50;;;;;;;1.95;0.40;;;;;;;;;;2070894;28;20034;-85
2021/10/18 07:27:08;;;;;;;0.50;0.32;;;;;;;;;;2067112;28;20034;-85
2021/10/18 07:28:27;;;;;;;1.38;0.43;;;;;;;;;;2075228;28;20382;-86
2021/10/18 07:29:46;;;;;;;1.83;0.40;;;;;;;;;;2073512;28;20452;-86
2021/10/18 07:31:05;;;;;;;1.48;0.60;;;;;;;;;;2077222;28;20037;-84
2021/10/18 07:32:24;;;;;;;1.05;0.60;;;;;;;;;;2070953;28;20123;-84
2021/10/18 07:33:43;;;;;;;0.88;0.30;;;;;;;;;;2068155;28;20033;-83
2021/10/18 07:35:03;;;;;;;2.47;0.60;;;;;;;;;;2070554;28;20037;-82
2021/10/18 07:36:24;;;;;;;2.22;0.30;;;;;;;;;;2071690;28;20096;-82
2021/10/18 07:37:51;;;;;;;2.50;0.35;;;;;;;;;;2073105;28;20026;-82
2021/10/18 07:39:10;;;;;;;2.50;0.50;;;;;;;;;;2070974;28;20390;-83
2021/10/18 07:40:29;;;;;;;1.00;0.30;;;;;;;;;;2075102;28;20120;-82
2021/10/18 07:41:49;;;;;;;0.93;0.35;;;;;;;;;;2073840;28;20402;-84
2021/10/18 07:43:10;;;;;;;0.90;0.45;;;;;;;;;;2069717;28;20034;-83
2021/10/18 07:44:29;;;;;;;1.55;0.40;;;;;;;;;;2070665;28;20026;-84
2021/10/18 07:45:48;;;;;;;3.63;0.85;;;;;;;;;;2077157;28;20029;-84
2021/10/18 07:47:07;;;;;;;2.97;0.60;;;;;;;;;;2071604;28;20450;-85
2021/10/18 07:48:26;;;;;;;2.30;0.50;;;;;;;;;;2068648;28;20029;-84
2021/10/18 07:49:45;;;;;;;1.17;0.57;;;;;;;;;;2076076;28;20053;-84
2021/10/18 07:51:04;;;;;;;1.77;0.40;;;;;;;;;;2072579;28;20414;-84
2021/10/18 07:52:23;;;;;;;1.35;0.52;;;;;;;;;;2077010;28;20037;-83
2021/10/18 07:53:42;;;;;;;1.42;0.60;;;;;;;;;;2071409;28;20030;-84
2021/10/18 07:55:03;;;;;;;2.25;0.60;;;;;;;;;;2066379;28;20099;-85